sensor_id;sensor_type;location;lat;lon;timestamp;P1;durP1;ratioP1;P2;durP2;ratioP2
9398;SDS011;4739;49.334;8.792;2022-08-20T00:01:23;8.77;;;7.30;;
9398;SDS011;4739;49.334;8.792;2022-08-20T00:03:49;7.43;;;6.83;;
9398;SDS011;4739;49.334;8.792;2022-08-20T00:06:16;7.50;;;6.87;;
9398;SDS011;4739;49.334;8.792;2022-08-20T00:08:43;8.00;;;7.20;;
9398;SDS011;4739;49.334;8.792;2022-08-20T00:11:10;9.67;;;7.53;;
9398;SDS011;4739;49.334;8.792;2022-08-20T00:13:42;7.53;;;6.83;;
9398;SDS011;4739;49.334;8.792;2022-08-20T00:16:09;8.13;;;7.43;;
9398;SDS011;4739;49.334;8.792;2022-08-20T00:18:35;8.33;;;7.63;;
9398;SDS011;4739;49.334;8.792;2022-08-20T00:21:03;7.80;;;7.10;;
9398;SDS011;4739;49.334;8.792;2022-08-20T00:23:29;8.50;;;7.70;;
9398;SDS011;4739;49.334;8.792;2022-08-20T00:25:55;8.13;;;7.40;;
9398;SDS011;4739;49.334;8.792;2022-08-20T00:28:21;8.57;;;7.70;;
9398;SDS011;4739;49.334;8.792;2022-08-20T00:30:47;8.77;;;7.97;;
9398;SDS011;4739;49.334;8.792;2022-08-20T00:33:18;8.90;;;8.10;;
9398;SDS011;4739;49.334;8.792;2022-08-20T00:35:49;9.30;;;8.40;;
9398;SDS011;4739;49.334;8.792;2022-08-20T00:38:16;9.53;;;8.60;;
9398;SDS011;4739;49.334;8.792;2022-08-20T00:40:44;9.07;;;8.03;;
9398;SDS011;4739;49.334;8.792;2022-08-20T00:45:55;9.13;;;8.33;;
9398;SDS011;4739;49.334;8.792;2022-08-20T00:48:25;10.10;;;9.20;;
9398;SDS011;4739;49.334;8.792;2022-08-20T00:50:52;8.87;;;8.07;;
9398;SDS011;4739;49.334;8.792;2022-08-20T00:53:19;9.30;;;8.50;;
9398;SDS011;4739;49.334;8.792;2022-08-20T00:55:46;9.10;;;8.20;;
9398;SDS011;4739;49.334;8.792;2022-08-20T00:58:12;9.53;;;8.67;;
9398;SDS011;4739;49.334;8.792;2022-08-20T01:00:39;9.50;;;8.53;;
9398;SDS011;4739;49.334;8.792;2022-08-20T01:03:07;9.17;;;8.37;;
9398;SDS011;4739;49.334;8.792;2022-08-20T01:05:35;9.60;;;8.80;;
9398;SDS011;4739;49.334;8.792;2022-08-20T01:08:02;10.37;;;9.37;;
9398;SDS011;4739;49.334;8.792;2022-08-20T01:10:29;9.03;;;8.23;;
9398;SDS011;4739;49.334;8.792;2022-08-20T01:12:57;9.50;;;8.70;;
9398;SDS011;4739;49.334;8.792;2022-08-20T01:15:24;9.60;;;8.80;;
9398;SDS011;4739;49.334;8.792;2022-08-20T01:17:52;9.80;;;8.90;;
9398;SDS011;4739;49.334;8.792;2022-08-20T01:20:20;8.73;;;8.03;;
9398;SDS011;4739;49.334;8.792;2022-08-20T01:22:59;9.40;;;8.47;;
9398;SDS011;4739;49.334;8.792;2022-08-20T01:25:50;8.97;;;8.23;;
9398;SDS011;4739;49.334;8.792;2022-08-20T01:28:24;10.13;;;9.17;;
9398;SDS011;4739;49.334;8.792;2022-08-20T01:30:52;10.07;;;9.17;;
9398;SDS011;4739;49.334;8.792;2022-08-20T01:33:18;9.43;;;8.60;;
9398;SDS011;4739;49.334;8.792;2022-08-20T01:35:45;9.60;;;8.70;;
9398;SDS011;4739;49.334;8.792;2022-08-20T01:38:11;9.47;;;8.63;;
9398;SDS011;4739;49.334;8.792;2022-08-20T01:40:43;9.37;;;8.40;;
9398;SDS011;4739;49.334;8.792;2022-08-20T01:43:12;8.43;;;7.73;;
9398;SDS011;4739;49.334;8.792;2022-08-20T01:45:39;8.87;;;8.10;;
9398;SDS011;4739;49.334;8.792;2022-08-20T01:50:31;8.17;;;7.50;;
9398;SDS011;4739;49.334;8.792;2022-08-20T01:53:00;10.03;;;8.87;;
9398;SDS011;4739;49.334;8.792;2022-08-20T01:55:28;8.87;;;7.97;;
9398;SDS011;4739;49.334;8.792;2022-08-20T01:57:54;9.27;;;8.47;;
9398;SDS011;4739;49.334;8.792;2022-08-20T02:00:21;8.47;;;7.67;;
9398;SDS011;4739;49.334;8.792;2022-08-20T02:02:47;8.30;;;7.17;;
9398;SDS011;4739;49.334;8.792;2022-08-20T02:05:13;8.37;;;6.50;;
9398;SDS011;4739;49.334;8.792;2022-08-20T02:07:39;7.63;;;5.60;;
9398;SDS011;4739;49.334;8.792;2022-08-20T02:10:05;6.77;;;5.63;;
9398;SDS011;4739;49.334;8.792;2022-08-20T02:12:33;5.80;;;5.27;;
9398;SDS011;4739;49.334;8.792;2022-08-20T02:14:59;5.90;;;5.40;;
9398;SDS011;4739;49.334;8.792;2022-08-20T02:17:25;5.90;;;5.30;;
9398;SDS011;4739;49.334;8.792;2022-08-20T02:19:52;4.90;;;4.50;;
9398;SDS011;4739;49.334;8.792;2022-08-20T02:22:33;5.60;;;5.10;;
9398;SDS011;4739;49.334;8.792;2022-08-20T02:25:00;8.10;;;7.30;;
9398;SDS011;4739;49.334;8.792;2022-08-20T02:27:26;7.83;;;7.13;;
9398;SDS011;4739;49.334;8.792;2022-08-20T02:29:52;9.10;;;8.20;;
9398;SDS011;4739;49.334;8.792;2022-08-20T02:32:18;8.63;;;7.83;;
9398;SDS011;4739;49.334;8.792;2022-08-20T02:34:44;9.23;;;8.43;;
9398;SDS011;4739;49.334;8.792;2022-08-20T02:37:10;9.10;;;7.57;;
9398;SDS011;4739;49.334;8.792;2022-08-20T02:39:43;9.17;;;8.37;;
9398;SDS011;4739;49.334;8.792;2022-08-20T02:42:08;9.27;;;8.30;;
9398;SDS011;4739;49.334;8.792;2022-08-20T02:44:36;8.87;;;8.13;;
9398;SDS011;4739;49.334;8.792;2022-08-20T02:47:03;9.00;;;8.30;;
9398;SDS011;4739;49.334;8.792;2022-08-20T02:49:29;10.20;;;9.20;;
9398;SDS011;4739;49.334;8.792;2022-08-20T02:51:55;9.00;;;8.20;;
9398;SDS011;4739;49.334;8.792;2022-08-20T02:54:22;8.67;;;7.77;;
9398;SDS011;4739;49.334;8.792;2022-08-20T02:56:48;8.77;;;8.00;;
9398;SDS011;4739;49.334;8.792;2022-08-20T02:59:14;8.33;;;7.60;;
9398;SDS011;4739;49.334;8.792;2022-08-20T03:01:40;8.60;;;7.63;;
9398;SDS011;4739;49.334;8.792;2022-08-20T03:04:06;8.87;;;7.97;;
9398;SDS011;4739;49.334;8.792;2022-08-20T03:06:32;8.30;;;7.57;;
9398;SDS011;4739;49.334;8.792;2022-08-20T03:08:58;8.83;;;8.03;;
9398;SDS011;4739;49.334;8.792;2022-08-20T03:11:24;8.73;;;8.00;;
9398;SDS011;4739;49.334;8.792;2022-08-20T03:13:50;8.17;;;7.03;;
9398;SDS011;4739;49.334;8.792;2022-08-20T03:16:16;8.33;;;7.63;;
9398;SDS011;4739;49.334;8.792;2022-08-20T03:18:43;8.77;;;7.87;;
9398;SDS011;4739;49.334;8.792;2022-08-20T03:21:09;8.57;;;7.77;;
9398;SDS011;4739;49.334;8.792;2022-08-20T03:23:36;8.93;;;8.03;;
9398;SDS011;4739;49.334;8.792;2022-08-20T03:26:06;8.27;;;7.57;;
9398;SDS011;4739;49.334;8.792;2022-08-20T03:28:33;9.47;;;8.67;;
9398;SDS011;4739;49.334;8.792;2022-08-20T03:30:59;8.60;;;7.80;;
9398;SDS011;4739;49.334;8.792;2022-08-20T03:33:25;9.37;;;8.37;;
9398;SDS011;4739;49.334;8.792;2022-08-20T03:35:51;8.87;;;7.97;;
9398;SDS011;4739;49.334;8.792;2022-08-20T03:38:18;10.00;;;8.50;;
9398;SDS011;4739;49.334;8.792;2022-08-20T03:40:47;8.70;;;7.80;;
9398;SDS011;4739;49.334;8.792;2022-08-20T03:43:13;8.90;;;8.00;;
9398;SDS011;4739;49.334;8.792;2022-08-20T03:45:40;10.37;;;8.10;;
9398;SDS011;4739;49.334;8.792;2022-08-20T03:50:33;9.47;;;8.53;;
9398;SDS011;4739;49.334;8.792;2022-08-20T03:52:59;8.70;;;8.00;;
9398;SDS011;4739;49.334;8.792;2022-08-20T03:55:26;8.57;;;7.77;;
9398;SDS011;4739;49.334;8.792;2022-08-20T03:57:55;8.87;;;8.00;;
9398;SDS011;4739;49.334;8.792;2022-08-20T04:00:22;8.90;;;8.20;;
9398;SDS011;4739;49.334;8.792;2022-08-20T04:02:49;8.00;;;7.30;;
9398;SDS011;4739;49.334;8.792;2022-08-20T04:05:15;8.87;;;8.03;;
9398;SDS011;4739;49.334;8.792;2022-08-20T04:07:41;8.53;;;7.73;;
9398;SDS011;4739;49.334;8.792;2022-08-20T04:10:09;8.77;;;7.87;;
9398;SDS011;4739;49.334;8.792;2022-08-20T04:12:35;8.00;;;7.30;;
9398;SDS011;4739;49.334;8.792;2022-08-20T04:15:14;8.53;;;7.67;;
9398;SDS011;4739;49.334;8.792;2022-08-20T04:17:41;7.77;;;7.07;;
9398;SDS011;4739;49.334;8.792;2022-08-20T04:20:09;8.33;;;7.53;;
9398;SDS011;4739;49.334;8.792;2022-08-20T04:22:35;7.97;;;7.27;;
9398;SDS011;4739;49.334;8.792;2022-08-20T04:25:03;8.63;;;7.93;;
9398;SDS011;4739;49.334;8.792;2022-08-20T04:27:29;7.43;;;6.83;;
9398;SDS011;4739;49.334;8.792;2022-08-20T04:29:57;8.13;;;7.33;;
9398;SDS011;4739;49.334;8.792;2022-08-20T04:32:23;7.53;;;6.77;;
9398;SDS011;4739;49.334;8.792;2022-08-20T04:34:49;8.17;;;7.57;;
9398;SDS011;4739;49.334;8.792;2022-08-20T04:37:17;7.77;;;7.07;;
9398;SDS011;4739;49.334;8.792;2022-08-20T04:39:45;8.20;;;7.50;;
9398;SDS011;4739;49.334;8.792;2022-08-20T04:42:30;8.57;;;7.77;;
9398;SDS011;4739;49.334;8.792;2022-08-20T04:44:56;8.20;;;7.40;;
9398;SDS011;4739;49.334;8.792;2022-08-20T04:47:22;8.23;;;7.43;;
9398;SDS011;4739;49.334;8.792;2022-08-20T04:49:48;8.00;;;7.30;;
9398;SDS011;4739;49.334;8.792;2022-08-20T04:52:14;8.77;;;8.07;;
9398;SDS011;4739;49.334;8.792;2022-08-20T04:54:40;8.50;;;7.70;;
9398;SDS011;4739;49.334;8.792;2022-08-20T04:57:07;8.40;;;7.60;;
9398;SDS011;4739;49.334;8.792;2022-08-20T04:59:33;8.23;;;7.43;;
9398;SDS011;4739;49.334;8.792;2022-08-20T05:01:59;8.23;;;7.53;;
9398;SDS011;4739;49.334;8.792;2022-08-20T05:04:26;8.13;;;7.37;;
9398;SDS011;4739;49.334;8.792;2022-08-20T05:06:52;8.43;;;7.63;;
9398;SDS011;4739;49.334;8.792;2022-08-20T05:09:18;5.93;;;5.43;;
9398;SDS011;4739;49.334;8.792;2022-08-20T05:11:44;6.33;;;5.73;;
9398;SDS011;4739;49.334;8.792;2022-08-20T05:14:10;6.90;;;6.20;;
9398;SDS011;4739;49.334;8.792;2022-08-20T05:16:38;7.30;;;6.70;;
9398;SDS011;4739;49.334;8.792;2022-08-20T05:19:08;7.17;;;6.67;;
9398;SDS011;4739;49.334;8.792;2022-08-20T05:21:35;8.10;;;7.40;;
9398;SDS011;4739;49.334;8.792;2022-08-20T05:24:01;9.30;;;8.40;;
9398;SDS011;4739;49.334;8.792;2022-08-20T05:26:27;9.37;;;8.57;;
9398;SDS011;4739;49.334;8.792;2022-08-20T05:28:53;8.47;;;7.77;;
9398;SDS011;4739;49.334;8.792;2022-08-20T05:31:19;8.70;;;7.30;;
9398;SDS011;4739;49.334;8.792;2022-08-20T05:33:45;7.33;;;6.67;;
9398;SDS011;4739;49.334;8.792;2022-08-20T05:36:15;7.20;;;6.60;;
9398;SDS011;4739;49.334;8.792;2022-08-20T05:38:41;6.03;;;4.00;;
9398;SDS011;4739;49.334;8.792;2022-08-20T05:41:07;3.20;;;2.90;;
9398;SDS011;4739;49.334;8.792;2022-08-20T05:43:34;3.80;;;2.67;;
9398;SDS011;4739;49.334;8.792;2022-08-20T05:46:00;3.77;;;2.87;;
9398;SDS011;4739;49.334;8.792;2022-08-20T05:48:26;2.77;;;2.57;;
9398;SDS011;4739;49.334;8.792;2022-08-20T05:50:53;4.07;;;2.70;;
9398;SDS011;4739;49.334;8.792;2022-08-20T05:53:19;2.80;;;2.23;;
9398;SDS011;4739;49.334;8.792;2022-08-20T05:55:45;2.73;;;2.53;;
9398;SDS011;4739;49.334;8.792;2022-08-20T05:58:23;3.57;;;2.50;;
9398;SDS011;4739;49.334;8.792;2022-08-20T06:00:50;2.60;;;2.20;;
9398;SDS011;4739;49.334;8.792;2022-08-20T06:03:16;3.03;;;2.47;;
9398;SDS011;4739;49.334;8.792;2022-08-20T06:06:01;3.20;;;2.50;;
9398;SDS011;4739;49.334;8.792;2022-08-20T06:08:28;2.97;;;2.63;;
9398;SDS011;4739;49.334;8.792;2022-08-20T06:10:54;3.10;;;2.80;;
9398;SDS011;4739;49.334;8.792;2022-08-20T06:13:20;2.67;;;2.47;;
9398;SDS011;4739;49.334;8.792;2022-08-20T06:15:46;2.80;;;2.50;;
9398;SDS011;4739;49.334;8.792;2022-08-20T06:18:13;3.87;;;2.67;;
9398;SDS011;4739;49.334;8.792;2022-08-20T06:20:39;2.90;;;2.70;;
9398;SDS011;4739;49.334;8.792;2022-08-20T06:23:05;4.80;;;3.00;;
9398;SDS011;4739;49.334;8.792;2022-08-20T06:25:32;2.80;;;2.60;;
9398;SDS011;4739;49.334;8.792;2022-08-20T06:27:59;3.47;;;2.80;;
9398;SDS011;4739;49.334;8.792;2022-08-20T06:30:25;3.70;;;2.63;;
9398;SDS011;4739;49.334;8.792;2022-08-20T06:32:51;4.13;;;2.67;;
9398;SDS011;4739;49.334;8.792;2022-08-20T06:35:17;3.03;;;2.70;;
9398;SDS011;4739;49.334;8.792;2022-08-20T06:37:43;3.80;;;3.07;;
9398;SDS011;4739;49.334;8.792;2022-08-20T06:40:14;4.83;;;2.90;;
9398;SDS011;4739;49.334;8.792;2022-08-20T06:42:40;4.70;;;3.47;;
9398;SDS011;4739;49.334;8.792;2022-08-20T06:45:11;3.47;;;3.10;;
9398;SDS011;4739;49.334;8.792;2022-08-20T06:47:39;2.93;;;2.63;;
9398;SDS011;4739;49.334;8.792;2022-08-20T06:50:09;3.40;;;2.70;;
9398;SDS011;4739;49.334;8.792;2022-08-20T06:52:35;3.27;;;2.53;;
9398;SDS011;4739;49.334;8.792;2022-08-20T06:55:03;3.77;;;2.77;;
9398;SDS011;4739;49.334;8.792;2022-08-20T06:57:29;3.30;;;2.60;;
9398;SDS011;4739;49.334;8.792;2022-08-20T06:59:55;3.23;;;2.83;;
9398;SDS011;4739;49.334;8.792;2022-08-20T07:02:22;3.20;;;2.47;;
9398;SDS011;4739;49.334;8.792;2022-08-20T07:04:48;4.27;;;2.50;;
9398;SDS011;4739;49.334;8.792;2022-08-20T07:07:15;4.23;;;2.90;;
9398;SDS011;4739;49.334;8.792;2022-08-20T07:09:41;2.70;;;2.50;;
9398;SDS011;4739;49.334;8.792;2022-08-20T07:12:08;2.63;;;2.30;;
9398;SDS011;4739;49.334;8.792;2022-08-20T07:14:34;3.00;;;2.30;;
9398;SDS011;4739;49.334;8.792;2022-08-20T07:17:04;2.57;;;2.37;;
9398;SDS011;4739;49.334;8.792;2022-08-20T07:19:31;4.37;;;2.87;;
9398;SDS011;4739;49.334;8.792;2022-08-20T07:21:57;3.17;;;2.63;;
9398;SDS011;4739;49.334;8.792;2022-08-20T07:24:23;2.60;;;2.23;;
9398;SDS011;4739;49.334;8.792;2022-08-20T07:26:49;3.27;;;2.40;;
9398;SDS011;4739;49.334;8.792;2022-08-20T07:29:16;2.60;;;2.40;;
9398;SDS011;4739;49.334;8.792;2022-08-20T07:31:42;2.67;;;2.47;;
9398;SDS011;4739;49.334;8.792;2022-08-20T07:34:26;3.17;;;2.87;;
9398;SDS011;4739;49.334;8.792;2022-08-20T07:36:57;2.43;;;2.23;;
9398;SDS011;4739;49.334;8.792;2022-08-20T07:39:23;2.77;;;2.57;;
9398;SDS011;4739;49.334;8.792;2022-08-20T07:41:49;4.00;;;2.70;;
9398;SDS011;4739;49.334;8.792;2022-08-20T07:44:27;3.37;;;2.50;;
9398;SDS011;4739;49.334;8.792;2022-08-20T07:46:53;3.00;;;2.70;;
9398;SDS011;4739;49.334;8.792;2022-08-20T07:49:19;2.70;;;2.50;;
9398;SDS011;4739;49.334;8.792;2022-08-20T07:51:45;2.80;;;2.60;;
9398;SDS011;4739;49.334;8.792;2022-08-20T07:54:11;3.60;;;2.67;;
9398;SDS011;4739;49.334;8.792;2022-08-20T07:56:37;3.20;;;2.70;;
9398;SDS011;4739;49.334;8.792;2022-08-20T07:59:03;3.97;;;2.47;;
9398;SDS011;4739;49.334;8.792;2022-08-20T08:01:30;3.53;;;2.70;;
9398;SDS011;4739;49.334;8.792;2022-08-20T08:03:57;4.17;;;2.50;;
9398;SDS011;4739;49.334;8.792;2022-08-20T08:06:24;4.47;;;2.60;;
9398;SDS011;4739;49.334;8.792;2022-08-20T08:08:51;4.30;;;2.70;;
9398;SDS011;4739;49.334;8.792;2022-08-20T08:11:17;4.20;;;2.70;;
9398;SDS011;4739;49.334;8.792;2022-08-20T08:13:43;2.70;;;2.50;;
9398;SDS011;4739;49.334;8.792;2022-08-20T08:16:10;3.17;;;2.87;;
9398;SDS011;4739;49.334;8.792;2022-08-20T08:18:38;4.33;;;2.60;;
9398;SDS011;4739;49.334;8.792;2022-08-20T08:21:06;3.47;;;3.17;;
9398;SDS011;4739;49.334;8.792;2022-08-20T08:23:32;3.07;;;2.80;;
9398;SDS011;4739;49.334;8.792;2022-08-20T08:25:59;3.63;;;3.00;;
9398;SDS011;4739;49.334;8.792;2022-08-20T08:28:25;5.60;;;2.90;;
9398;SDS011;4739;49.334;8.792;2022-08-20T08:30:55;3.40;;;3.10;;
9398;SDS011;4739;49.334;8.792;2022-08-20T08:33:28;3.77;;;3.03;;
9398;SDS011;4739;49.334;8.792;2022-08-20T08:35:57;3.40;;;3.10;;
9398;SDS011;4739;49.334;8.792;2022-08-20T08:38:24;3.43;;;3.07;;
9398;SDS011;4739;49.334;8.792;2022-08-20T08:40:52;5.83;;;3.30;;
9398;SDS011;4739;49.334;8.792;2022-08-20T08:43:19;5.17;;;3.50;;
9398;SDS011;4739;49.334;8.792;2022-08-20T08:45:49;4.57;;;3.20;;
9398;SDS011;4739;49.334;8.792;2022-08-20T08:48:18;5.70;;;3.23;;
9398;SDS011;4739;49.334;8.792;2022-08-20T08:50:46;5.23;;;3.87;;
9398;SDS011;4739;49.334;8.792;2022-08-20T08:53:33;6.03;;;4.03;;
9398;SDS011;4739;49.334;8.792;2022-08-20T08:56:02;11.60;;;6.30;;
9398;SDS011;4739;49.334;8.792;2022-08-20T08:58:28;8.33;;;4.97;;
9398;SDS011;4739;49.334;8.792;2022-08-20T09:00:54;7.23;;;4.97;;
9398;SDS011;4739;49.334;8.792;2022-08-20T09:03:27;6.20;;;4.73;;
9398;SDS011;4739;49.334;8.792;2022-08-20T09:05:56;6.63;;;5.10;;
9398;SDS011;4739;49.334;8.792;2022-08-20T09:08:24;7.13;;;5.20;;
9398;SDS011;4739;49.334;8.792;2022-08-20T09:10:51;7.00;;;4.73;;
9398;SDS011;4739;49.334;8.792;2022-08-20T09:13:17;6.77;;;4.90;;
9398;SDS011;4739;49.334;8.792;2022-08-20T09:15:43;7.03;;;5.13;;
9398;SDS011;4739;49.334;8.792;2022-08-20T09:18:10;6.03;;;5.40;;
9398;SDS011;4739;49.334;8.792;2022-08-20T09:20:36;5.50;;;4.90;;
9398;SDS011;4739;49.334;8.792;2022-08-20T09:23:04;5.50;;;5.00;;
9398;SDS011;4739;49.334;8.792;2022-08-20T09:25:30;6.03;;;5.07;;
9398;SDS011;4739;49.334;8.792;2022-08-20T09:27:56;5.80;;;5.17;;
9398;SDS011;4739;49.334;8.792;2022-08-20T09:30:22;6.03;;;5.43;;
9398;SDS011;4739;49.334;8.792;2022-08-20T09:32:48;6.20;;;5.17;;
9398;SDS011;4739;49.334;8.792;2022-08-20T09:35:14;7.33;;;5.37;;
9398;SDS011;4739;49.334;8.792;2022-08-20T09:37:40;6.00;;;5.47;;
9398;SDS011;4739;49.334;8.792;2022-08-20T09:40:07;5.90;;;5.37;;
9398;SDS011;4739;49.334;8.792;2022-08-20T09:42:34;7.87;;;5.53;;
9398;SDS011;4739;49.334;8.792;2022-08-20T09:45:00;7.57;;;5.10;;
9398;SDS011;4739;49.334;8.792;2022-08-20T09:47:27;5.67;;;5.13;;
9398;SDS011;4739;49.334;8.792;2022-08-20T09:49:53;5.57;;;5.03;;
9398;SDS011;4739;49.334;8.792;2022-08-20T09:52:22;6.70;;;5.50;;
9398;SDS011;4739;49.334;8.792;2022-08-20T09:54:49;5.07;;;3.70;;
9398;SDS011;4739;49.334;8.792;2022-08-20T09:57:16;5.10;;;3.80;;
9398;SDS011;4739;49.334;8.792;2022-08-20T09:59:42;3.93;;;3.17;;
9398;SDS011;4739;49.334;8.792;2022-08-20T10:02:09;4.10;;;2.70;;
9398;SDS011;4739;49.334;8.792;2022-08-20T10:04:35;3.13;;;2.83;;
9398;SDS011;4739;49.334;8.792;2022-08-20T10:07:05;3.37;;;3.07;;
9398;SDS011;4739;49.334;8.792;2022-08-20T10:09:32;4.23;;;3.87;;
9398;SDS011;4739;49.334;8.792;2022-08-20T10:11:58;3.70;;;3.33;;
9398;SDS011;4739;49.334;8.792;2022-08-20T10:14:24;3.10;;;2.90;;
9398;SDS011;4739;49.334;8.792;2022-08-20T10:16:54;3.93;;;3.53;;
9398;SDS011;4739;49.334;8.792;2022-08-20T10:19:20;3.70;;;3.13;;
9398;SDS011;4739;49.334;8.792;2022-08-20T10:21:46;4.70;;;3.73;;
9398;SDS011;4739;49.334;8.792;2022-08-20T10:24:14;4.00;;;3.13;;
9398;SDS011;4739;49.334;8.792;2022-08-20T10:26:40;3.47;;;3.17;;
9398;SDS011;4739;49.334;8.792;2022-08-20T10:29:06;3.80;;;3.20;;
9398;SDS011;4739;49.334;8.792;2022-08-20T10:31:32;4.63;;;3.73;;
9398;SDS011;4739;49.334;8.792;2022-08-20T10:33:58;4.83;;;4.07;;
9398;SDS011;4739;49.334;8.792;2022-08-20T10:36:24;4.03;;;3.73;;
9398;SDS011;4739;49.334;8.792;2022-08-20T10:38:50;4.47;;;4.07;;
9398;SDS011;4739;49.334;8.792;2022-08-20T10:41:16;4.30;;;3.90;;
9398;SDS011;4739;49.334;8.792;2022-08-20T10:43:43;3.83;;;3.53;;
9398;SDS011;4739;49.334;8.792;2022-08-20T10:46:09;4.97;;;3.57;;
9398;SDS011;4739;49.334;8.792;2022-08-20T10:48:36;3.50;;;3.20;;
9398;SDS011;4739;49.334;8.792;2022-08-20T10:51:02;3.37;;;3.07;;
9398;SDS011;4739;49.334;8.792;2022-08-20T10:53:28;3.80;;;3.13;;
9398;SDS011;4739;49.334;8.792;2022-08-20T10:55:55;3.30;;;3.00;;
9398;SDS011;4739;49.334;8.792;2022-08-20T10:58:22;3.13;;;2.83;;
9398;SDS011;4739;49.334;8.792;2022-08-20T11:00:48;3.47;;;3.17;;
9398;SDS011;4739;49.334;8.792;2022-08-20T11:03:14;2.80;;;2.60;;
9398;SDS011;4739;49.334;8.792;2022-08-20T11:05:40;3.05;;;2.85;;
9398;SDS011;4739;49.334;8.792;2022-08-20T11:08:06;3.30;;;2.58;;
9398;SDS011;4739;49.334;8.792;2022-08-20T11:10:33;3.08;;;2.80;;
9398;SDS011;4739;49.334;8.792;2022-08-20T11:13:02;2.72;;;2.53;;
9398;SDS011;4739;49.334;8.792;2022-08-20T11:15:28;2.40;;;2.20;;
9398;SDS011;4739;49.334;8.792;2022-08-20T11:17:54;2.53;;;2.33;;
9398;SDS011;4739;49.334;8.792;2022-08-20T11:20:21;2.53;;;2.33;;
9398;SDS011;4739;49.334;8.792;2022-08-20T11:22:49;2.80;;;2.60;;
9398;SDS011;4739;49.334;8.792;2022-08-20T11:25:15;3.22;;;2.67;;
9398;SDS011;4739;49.334;8.792;2022-08-20T11:27:42;4.32;;;2.63;;
9398;SDS011;4739;49.334;8.792;2022-08-20T11:30:10;3.30;;;3.05;;
9398;SDS011;4739;49.334;8.792;2022-08-20T11:32:36;3.17;;;2.83;;
9398;SDS011;4739;49.334;8.792;2022-08-20T11:35:02;2.92;;;2.30;;
9398;SDS011;4739;49.334;8.792;2022-08-20T11:37:28;3.47;;;2.70;;
9398;SDS011;4739;49.334;8.792;2022-08-20T11:39:54;2.75;;;2.50;;
9398;SDS011;4739;49.334;8.792;2022-08-20T11:42:20;2.55;;;2.17;;
9398;SDS011;4739;49.334;8.792;2022-08-20T11:44:46;2.80;;;2.58;;
9398;SDS011;4739;49.334;8.792;2022-08-20T11:47:19;2.50;;;2.30;;
9398;SDS011;4739;49.334;8.792;2022-08-20T11:49:45;3.15;;;2.35;;
9398;SDS011;4739;49.334;8.792;2022-08-20T11:52:11;2.50;;;2.30;;
9398;SDS011;4739;49.334;8.792;2022-08-20T11:54:37;2.80;;;2.50;;
9398;SDS011;4739;49.334;8.792;2022-08-20T11:57:04;2.83;;;2.30;;
9398;SDS011;4739;49.334;8.792;2022-08-20T11:59:30;2.33;;;2.20;;
9398;SDS011;4739;49.334;8.792;2022-08-20T12:01:56;2.28;;;2.08;;
9398;SDS011;4739;49.334;8.792;2022-08-20T12:04:24;2.25;;;2.05;;
9398;SDS011;4739;49.334;8.792;2022-08-20T12:06:50;2.63;;;2.00;;
9398;SDS011;4739;49.334;8.792;2022-08-20T12:09:16;1.80;;;1.70;;
9398;SDS011;4739;49.334;8.792;2022-08-20T12:11:43;1.98;;;1.88;;
9398;SDS011;4739;49.334;8.792;2022-08-20T12:14:10;2.08;;;1.88;;
9398;SDS011;4739;49.334;8.792;2022-08-20T12:16:36;1.73;;;1.60;;
9398;SDS011;4739;49.334;8.792;2022-08-20T12:19:02;2.03;;;1.83;;
9398;SDS011;4739;49.334;8.792;2022-08-20T12:21:28;1.90;;;1.63;;
9398;SDS011;4739;49.334;8.792;2022-08-20T12:23:54;1.60;;;1.45;;
9398;SDS011;4739;49.334;8.792;2022-08-20T12:26:20;1.88;;;1.70;;
9398;SDS011;4739;49.334;8.792;2022-08-20T12:28:46;1.45;;;1.35;;
9398;SDS011;4739;49.334;8.792;2022-08-20T12:31:12;1.60;;;1.48;;
9398;SDS011;4739;49.334;8.792;2022-08-20T12:33:38;1.33;;;1.23;;
9398;SDS011;4739;49.334;8.792;2022-08-20T12:36:04;1.83;;;1.33;;
9398;SDS011;4739;49.334;8.792;2022-08-20T12:38:30;1.40;;;1.20;;
9398;SDS011;4739;49.334;8.792;2022-08-20T12:40:56;1.63;;;1.00;;
9398;SDS011;4739;49.334;8.792;2022-08-20T12:43:22;1.35;;;0.90;;
9398;SDS011;4739;49.334;8.792;2022-08-20T12:45:48;1.17;;;0.90;;
9398;SDS011;4739;49.334;8.792;2022-08-20T12:48:14;1.20;;;1.10;;
9398;SDS011;4739;49.334;8.792;2022-08-20T12:50:41;1.10;;;1.00;;
9398;SDS011;4739;49.334;8.792;2022-08-20T12:53:09;2.95;;;1.05;;
9398;SDS011;4739;49.334;8.792;2022-08-20T12:55:35;3.00;;;0.90;;
9398;SDS011;4739;49.334;8.792;2022-08-20T12:58:02;1.85;;;0.70;;
9398;SDS011;4739;49.334;8.792;2022-08-20T13:00:33;0.95;;;0.70;;
9398;SDS011;4739;49.334;8.792;2022-08-20T13:03:00;0.95;;;0.70;;
9398;SDS011;4739;49.334;8.792;2022-08-20T13:05:26;1.85;;;0.80;;
9398;SDS011;4739;49.334;8.792;2022-08-20T13:07:52;0.50;;;0.50;;
9398;SDS011;4739;49.334;8.792;2022-08-20T13:10:21;0.80;;;0.80;;
9398;SDS011;4739;49.334;8.792;2022-08-20T13:12:47;0.68;;;0.63;;
9398;SDS011;4739;49.334;8.792;2022-08-20T13:15:13;0.60;;;0.60;;
9398;SDS011;4739;49.334;8.792;2022-08-20T13:17:39;1.23;;;0.55;;
9398;SDS011;4739;49.334;8.792;2022-08-20T13:20:06;0.70;;;0.50;;
9398;SDS011;4739;49.334;8.792;2022-08-20T13:22:33;0.77;;;0.70;;
9398;SDS011;4739;49.334;8.792;2022-08-20T13:24:59;1.25;;;0.47;;
9398;SDS011;4739;49.334;8.792;2022-08-20T13:27:25;0.60;;;0.60;;
9398;SDS011;4739;49.334;8.792;2022-08-20T13:29:52;0.70;;;0.70;;
9398;SDS011;4739;49.334;8.792;2022-08-20T13:32:19;0.70;;;0.70;;
9398;SDS011;4739;49.334;8.792;2022-08-20T13:34:46;1.48;;;1.00;;
9398;SDS011;4739;49.334;8.792;2022-08-20T13:37:17;1.50;;;1.00;;
9398;SDS011;4739;49.334;8.792;2022-08-20T13:39:43;0.82;;;0.77;;
9398;SDS011;4739;49.334;8.792;2022-08-20T13:42:10;1.00;;;0.50;;
9398;SDS011;4739;49.334;8.792;2022-08-20T13:44:37;1.77;;;0.50;;
9398;SDS011;4739;49.334;8.792;2022-08-20T13:47:17;0.93;;;0.60;;
9398;SDS011;4739;49.334;8.792;2022-08-20T13:49:43;1.00;;;0.60;;
9398;SDS011;4739;49.334;8.792;2022-08-20T13:52:09;1.08;;;0.60;;
9398;SDS011;4739;49.334;8.792;2022-08-20T13:54:35;1.65;;;0.55;;
9398;SDS011;4739;49.334;8.792;2022-08-20T13:57:06;0.60;;;0.50;;
9398;SDS011;4739;49.334;8.792;2022-08-20T13:59:39;0.70;;;0.60;;
9398;SDS011;4739;49.334;8.792;2022-08-20T14:02:05;0.50;;;0.50;;
9398;SDS011;4739;49.334;8.792;2022-08-20T14:04:32;0.65;;;0.55;;
9398;SDS011;4739;49.334;8.792;2022-08-20T14:07:07;1.63;;;0.70;;
9398;SDS011;4739;49.334;8.792;2022-08-20T14:09:33;0.52;;;0.50;;
9398;SDS011;4739;49.334;8.792;2022-08-20T14:12:01;0.60;;;0.60;;
9398;SDS011;4739;49.334;8.792;2022-08-20T14:14:27;0.68;;;0.68;;
9398;SDS011;4739;49.334;8.792;2022-08-20T14:16:53;0.98;;;0.80;;
9398;SDS011;4739;49.334;8.792;2022-08-20T14:19:19;0.90;;;0.90;;
9398;SDS011;4739;49.334;8.792;2022-08-20T14:21:45;1.33;;;1.00;;
9398;SDS011;4739;49.334;8.792;2022-08-20T14:24:11;1.10;;;0.88;;
9398;SDS011;4739;49.334;8.792;2022-08-20T14:26:36;1.75;;;1.00;;
9398;SDS011;4739;49.334;8.792;2022-08-20T14:29:02;2.67;;;1.40;;
9398;SDS011;4739;49.334;8.792;2022-08-20T14:31:28;1.17;;;0.90;;
9398;SDS011;4739;49.334;8.792;2022-08-20T14:33:54;1.13;;;0.90;;
9398;SDS011;4739;49.334;8.792;2022-08-20T14:36:20;0.93;;;0.90;;
9398;SDS011;4739;49.334;8.792;2022-08-20T14:38:46;1.23;;;0.93;;
9398;SDS011;4739;49.334;8.792;2022-08-20T14:41:12;1.52;;;0.98;;
9398;SDS011;4739;49.334;8.792;2022-08-20T14:43:38;0.98;;;0.85;;
9398;SDS011;4739;49.334;8.792;2022-08-20T14:46:04;1.77;;;1.08;;
9398;SDS011;4739;49.334;8.792;2022-08-20T14:48:30;1.27;;;1.17;;
9398;SDS011;4739;49.334;8.792;2022-08-20T14:50:56;1.40;;;1.20;;
9398;SDS011;4739;49.334;8.792;2022-08-20T14:53:23;0.80;;;0.73;;
9398;SDS011;4739;49.334;8.792;2022-08-20T14:55:49;0.90;;;0.90;;
9398;SDS011;4739;49.334;8.792;2022-08-20T14:58:15;1.65;;;1.17;;
9398;SDS011;4739;49.334;8.792;2022-08-20T15:00:42;1.63;;;1.15;;
9398;SDS011;4739;49.334;8.792;2022-08-20T15:03:08;2.35;;;1.35;;
9398;SDS011;4739;49.334;8.792;2022-08-20T15:05:34;1.20;;;1.10;;
9398;SDS011;4739;49.334;8.792;2022-08-20T15:08:01;1.75;;;0.82;;
9398;SDS011;4739;49.334;8.792;2022-08-20T15:10:28;2.25;;;1.13;;
9398;SDS011;4739;49.334;8.792;2022-08-20T15:12:54;2.78;;;1.10;;
9398;SDS011;4739;49.334;8.792;2022-08-20T15:15:20;2.05;;;1.00;;
9398;SDS011;4739;49.334;8.792;2022-08-20T15:17:48;0.93;;;0.93;;
9398;SDS011;4739;49.334;8.792;2022-08-20T15:20:16;0.95;;;0.85;;
9398;SDS011;4739;49.334;8.792;2022-08-20T15:22:43;1.10;;;1.00;;